createdAt,value
2023-05-08T00:00:40.775Z,86.96
2023-05-08T00:01:43.836Z,86.94
2023-05-08T00:02:48.058Z,86.93
2023-05-08T00:03:52.420Z,87.01
2023-05-08T00:04:56.544Z,87.09
2023-05-08T00:06:00.731Z,87.24
2023-05-08T00:07:04.923Z,87.34
2023-05-08T00:08:09.161Z,87.40
2023-05-08T00:09:13.313Z,87.44
2023-05-08T00:10:17.576Z,87.47
2023-05-08T00:11:21.799Z,87.53
2023-05-08T00:12:26.062Z,87.55
2023-05-08T00:13:30.247Z,87.87
2023-05-08T00:14:34.491Z,88.12
2023-05-08T00:15:38.734Z,88.22
2023-05-08T00:16:43.125Z,88.31
2023-05-08T00:17:47.311Z,88.45
2023-05-08T00:18:54.587Z,88.56
2023-05-08T00:19:57.831Z,88.73
2023-05-08T00:21:02.050Z,88.89
2023-05-08T00:22:06.318Z,88.93
2023-05-08T00:23:10.540Z,89.00
2023-05-08T00:24:14.811Z,89.09
2023-05-08T00:25:18.999Z,89.50
2023-05-08T00:26:23.276Z,89.79
2023-05-08T00:27:27.503Z,90.00
2023-05-08T00:28:31.734Z,90.12
2023-05-08T00:29:36.010Z,90.20
2023-05-08T00:30:40.258Z,90.27
2023-05-08T00:31:44.515Z,90.35
2023-05-08T00:32:48.756Z,90.35
2023-05-08T00:33:52.940Z,90.42
2023-05-08T00:34:57.314Z,90.64
2023-05-08T00:36:01.577Z,90.73
2023-05-08T00:37:05.731Z,90.82
2023-05-08T00:38:09.966Z,90.69
2023-05-08T00:39:14.258Z,90.65
2023-05-08T00:40:18.624Z,90.90
2023-05-08T00:41:22.906Z,91.15
2023-05-08T00:42:27.155Z,91.31
2023-05-08T00:43:31.443Z,91.46
2023-05-08T00:44:35.602Z,91.71
2023-05-08T00:45:39.971Z,91.77
2023-05-08T00:46:44.202Z,91.81
2023-05-08T00:47:48.388Z,91.68
2023-05-08T00:48:52.600Z,91.52
2023-05-08T00:49:56.950Z,91.34
2023-05-08T00:51:01.139Z,91.22
2023-05-08T00:52:05.349Z,91.10
2023-05-08T00:53:09.670Z,91.09
2023-05-08T00:54:14.046Z,91.05
2023-05-08T00:55:18.238Z,90.95
2023-05-08T00:56:22.543Z,90.85
2023-05-08T00:57:26.668Z,90.73
2023-05-08T00:58:30.973Z,90.68
2023-05-08T00:59:35.191Z,90.66
2023-05-08T01:00:39.456Z,90.77
2023-05-08T01:01:43.796Z,90.75
2023-05-08T01:02:48.142Z,90.77
2023-05-08T01:03:52.323Z,90.83
2023-05-08T01:04:56.440Z,90.87
2023-05-08T01:06:00.647Z,90.83
2023-05-08T01:07:04.849Z,90.88
2023-05-08T01:08:09.142Z,90.94
2023-05-08T01:09:13.383Z,90.92
2023-05-08T01:10:17.738Z,91.13
2023-05-08T01:11:21.978Z,91.35
2023-05-08T01:12:26.181Z,91.33
2023-05-08T01:13:30.436Z,91.28
2023-05-08T01:14:34.657Z,91.24
2023-05-08T01:15:38.934Z,91.10
2023-05-08T01:16:43.172Z,90.99
2023-05-08T01:17:47.473Z,90.92
2023-05-08T01:18:51.599Z,90.98
2023-05-08T01:19:55.927Z,91.04
2023-05-08T01:21:00.149Z,91.22
2023-05-08T01:22:04.330Z,91.27
2023-05-08T01:23:08.656Z,91.43
2023-05-08T01:24:12.951Z,91.50
2023-05-08T01:25:17.166Z,91.59
2023-05-08T01:26:21.533Z,91.70
2023-05-08T01:27:25.700Z,91.72
2023-05-08T01:28:29.912Z,91.72
2023-05-08T01:29:34.220Z,91.75
2023-05-08T01:30:38.607Z,91.71
2023-05-08T01:31:43.644Z,91.70
2023-05-08T01:32:47.739Z,91.62
2023-05-08T01:33:51.848Z,91.63
2023-05-08T01:34:56.136Z,91.68
2023-05-08T01:36:00.425Z,91.54
2023-05-08T01:37:04.731Z,91.44
2023-05-08T01:38:08.991Z,91.18
2023-05-08T01:39:13.085Z,91.09
2023-05-08T01:40:17.430Z,91.26
2023-05-08T01:41:21.640Z,91.23
2023-05-08T01:42:25.901Z,91.06
2023-05-08T01:43:30.148Z,91.00
2023-05-08T01:44:34.210Z,90.86
2023-05-08T01:45:38.610Z,90.76
2023-05-08T01:46:42.836Z,90.67
2023-05-08T01:47:47.124Z,90.64
2023-05-08T01:48:51.237Z,90.63
2023-05-08T01:49:55.509Z,90.64
2023-05-08T01:50:59.809Z,90.70
2023-05-08T01:52:04.036Z,90.71
2023-05-08T01:53:08.323Z,90.80
2023-05-08T01:54:12.473Z,90.85
2023-05-08T01:55:16.634Z,90.82
2023-05-08T01:56:20.905Z,90.81
2023-05-08T01:57:25.056Z,90.79
2023-05-08T01:58:29.289Z,90.84
2023-05-08T01:59:33.484Z,90.89
2023-05-08T02:00:37.801Z,90.95
2023-05-08T02:01:56.108Z,91.05
2023-05-08T02:02:59.434Z,91.23
2023-05-08T02:04:03.641Z,91.23
2023-05-08T02:05:07.697Z,91.31
2023-05-08T02:06:11.983Z,91.28
2023-05-08T02:07:16.240Z,91.30
2023-05-08T02:08:20.500Z,91.21
2023-05-08T02:09:24.654Z,91.28
2023-05-08T02:10:28.880Z,91.25
2023-05-08T02:11:33.106Z,91.19
2023-05-08T02:12:37.389Z,91.25
2023-05-08T02:13:41.575Z,91.30
2023-05-08T02:14:45.779Z,91.32
2023-05-08T02:15:50.040Z,91.31
2023-05-08T02:16:54.260Z,91.29
2023-05-08T02:17:58.497Z,91.31
2023-05-08T02:19:02.696Z,91.29
2023-05-08T02:20:06.867Z,91.31
2023-05-08T02:21:11.073Z,91.27
2023-05-08T02:22:15.369Z,91.30
2023-05-08T02:23:33.587Z,91.32
2023-05-08T02:24:36.586Z,91.28
2023-05-08T02:25:40.739Z,91.27
2023-05-08T02:26:44.941Z,91.23
2023-05-08T02:27:49.136Z,91.22
2023-05-08T02:28:56.390Z,91.20
2023-05-08T02:29:59.723Z,91.17
2023-05-08T02:31:03.813Z,91.15
2023-05-08T02:32:08.130Z,91.14
2023-05-08T02:33:12.293Z,91.18
2023-05-08T02:34:16.573Z,91.21
2023-05-08T02:35:20.768Z,91.24
2023-05-08T02:36:25.102Z,91.31
2023-05-08T02:37:29.308Z,91.37
2023-05-08T02:38:33.519Z,91.49
2023-05-08T02:39:37.734Z,91.64
2023-05-08T02:40:42.041Z,91.72
2023-05-08T02:41:46.223Z,91.79
2023-05-08T02:42:50.427Z,91.88
2023-05-08T02:43:54.754Z,91.99
2023-05-08T02:44:59.081Z,92.08
2023-05-08T02:46:03.326Z,92.16
2023-05-08T02:47:07.622Z,92.21
2023-05-08T02:48:11.706Z,92.27
2023-05-08T02:49:15.902Z,92.35
2023-05-08T02:50:20.179Z,92.39
2023-05-08T02:51:24.353Z,92.42
2023-05-08T02:52:28.609Z,92.48
2023-05-08T02:53:32.831Z,92.66
2023-05-08T02:54:37.005Z,92.74
2023-05-08T02:55:41.333Z,92.82
2023-05-08T02:56:45.521Z,92.91
2023-05-08T02:57:49.859Z,93.03
2023-05-08T02:58:54.008Z,93.21
2023-05-08T02:59:58.238Z,93.38
2023-05-08T03:01:02.551Z,93.53
2023-05-08T03:02:06.644Z,93.68
2023-05-08T03:03:11.017Z,93.80
2023-05-08T03:04:15.224Z,93.89
2023-05-08T03:05:19.387Z,94.01
2023-05-08T03:06:23.611Z,94.17
2023-05-08T03:07:27.831Z,94.30
2023-05-08T03:08:31.988Z,94.41
2023-05-08T03:09:36.373Z,94.51
2023-05-08T03:10:40.499Z,94.67
2023-05-08T03:11:44.723Z,94.81
2023-05-08T03:12:49.081Z,94.86
2023-05-08T03:13:53.273Z,94.95
2023-05-08T03:14:57.525Z,95.04
2023-05-08T03:16:01.737Z,95.10
2023-05-08T03:17:05.883Z,95.21
2023-05-08T03:18:10.191Z,95.29
2023-05-08T03:19:23.059Z,95.36
2023-05-08T03:20:23.185Z,95.43
2023-05-08T03:21:27.389Z,95.48
2023-05-08T03:22:31.685Z,95.54
2023-05-08T03:23:35.990Z,95.59
2023-05-08T03:24:40.155Z,95.64
2023-05-08T03:25:44.362Z,95.71
2023-05-08T03:26:48.625Z,95.73
2023-05-08T03:28:06.930Z,95.76
2023-05-08T03:29:10.006Z,95.77
2023-05-08T03:30:14.537Z,95.78
2023-05-08T03:31:18.379Z,95.73
2023-05-08T03:32:22.689Z,95.72
2023-05-08T03:33:26.880Z,95.70
2023-05-08T03:34:34.094Z,95.67
2023-05-08T03:35:40.481Z,95.63
2023-05-08T03:36:43.766Z,95.65
2023-05-08T03:37:47.989Z,95.64
2023-05-08T03:38:52.226Z,95.61
2023-05-08T03:39:56.480Z,95.58
2023-05-08T03:41:00.648Z,95.54
2023-05-08T03:42:04.867Z,95.47
2023-05-08T03:43:09.058Z,95.43
2023-05-08T03:44:13.357Z,95.38
2023-05-08T03:45:17.614Z,95.33
2023-05-08T03:46:21.832Z,95.31
2023-05-08T03:47:26.144Z,95.28
2023-05-08T03:48:30.252Z,95.32
2023-05-08T03:49:34.503Z,95.39
2023-05-08T03:50:38.703Z,95.45
2023-05-08T03:51:42.987Z,95.56
2023-05-08T03:52:47.231Z,95.62
2023-05-08T03:53:51.410Z,95.64
2023-05-08T03:54:55.691Z,95.59
2023-05-08T03:55:59.888Z,95.51
2023-05-08T03:57:04.174Z,95.43
2023-05-08T03:58:08.319Z,95.46
2023-05-08T03:59:12.598Z,95.43
2023-05-08T04:00:16.907Z,95.49
2023-05-08T04:01:21.083Z,95.51
2023-05-08T04:02:25.395Z,95.55
2023-05-08T04:03:29.797Z,95.61
2023-05-08T04:04:33.830Z,95.65
2023-05-08T04:05:38.244Z,95.69
2023-05-08T04:06:50.184Z,95.76
2023-05-08T04:07:46.471Z,95.86
2023-05-08T04:08:50.738Z,95.92
2023-05-08T04:09:54.964Z,96.00
2023-05-08T04:10:59.130Z,96.13
2023-05-08T04:12:03.472Z,96.23
2023-05-08T04:13:07.663Z,96.41
2023-05-08T04:14:11.853Z,96.55
2023-05-08T04:15:16.323Z,96.73
2023-05-08T04:16:20.421Z,96.89
2023-05-08T04:17:24.647Z,97.06
2023-05-08T04:18:31.892Z,97.19
2023-05-08T04:19:35.226Z,97.28
2023-05-08T04:20:39.458Z,97.37
2023-05-08T04:21:43.747Z,97.47
2023-05-08T04:22:47.883Z,97.59
2023-05-08T04:23:52.143Z,97.55
2023-05-08T04:24:56.399Z,97.67
2023-05-08T04:26:00.614Z,97.62
2023-05-08T04:27:04.834Z,97.66
2023-05-08T04:28:09.146Z,97.65
2023-05-08T04:29:13.454Z,97.64
2023-05-08T04:30:17.627Z,97.57
2023-05-08T04:31:22.008Z,97.52
2023-05-08T04:32:26.131Z,97.47
2023-05-08T04:33:30.463Z,97.42
2023-05-08T04:34:34.697Z,97.39
2023-05-08T04:35:38.861Z,97.33
2023-05-08T04:36:43.192Z,97.28
2023-05-08T04:37:47.282Z,97.18
2023-05-08T04:38:51.649Z,97.09
2023-05-08T04:39:58.888Z,97.03
2023-05-08T04:41:02.269Z,96.95
2023-05-08T04:42:06.545Z,96.84
2023-05-08T04:43:10.755Z,96.77
2023-05-08T04:44:15.073Z,96.72
2023-05-08T04:45:19.290Z,96.70
2023-05-08T04:46:37.577Z,96.63
2023-05-08T04:47:40.774Z,96.63
2023-05-08T04:48:44.889Z,96.64
2023-05-08T04:49:49.252Z,96.66
2023-05-08T04:50:53.451Z,96.66
2023-05-08T04:51:57.669Z,96.59
2023-05-08T04:53:01.977Z,96.60
2023-05-08T04:54:06.199Z,96.55
2023-05-08T04:55:10.791Z,96.53
2023-05-08T04:56:14.816Z,96.52
2023-05-08T04:57:19.086Z,96.57
2023-05-08T04:58:23.349Z,96.55
2023-05-08T04:59:27.754Z,96.57
2023-05-08T05:00:31.990Z,96.63
2023-05-08T05:01:36.283Z,96.59
2023-05-08T05:02:40.432Z,96.64
2023-05-08T05:03:44.698Z,96.74
2023-05-08T05:04:48.899Z,96.68
2023-05-08T05:05:53.162Z,96.77
2023-05-08T05:06:57.447Z,96.77
2023-05-08T05:08:01.781Z,96.75
2023-05-08T05:09:05.956Z,96.71
2023-05-08T05:10:10.346Z,96.60
2023-05-08T05:11:17.532Z,96.59
2023-05-08T05:12:20.809Z,96.60
2023-05-08T05:13:25.059Z,96.56
2023-05-08T05:14:29.252Z,96.49
2023-05-08T05:15:33.554Z,96.46
2023-05-08T05:16:37.897Z,96.41
2023-05-08T05:17:42.006Z,96.41
2023-05-08T05:18:46.279Z,96.37
2023-05-08T05:19:51.601Z,96.21
2023-05-08T05:20:54.763Z,96.18
2023-05-08T05:21:59.157Z,96.16
2023-05-08T05:23:03.354Z,96.05
2023-05-08T05:24:07.628Z,95.97
2023-05-08T05:25:12.229Z,95.83
2023-05-08T05:26:16.089Z,95.71
2023-05-08T05:27:21.371Z,95.59
2023-05-08T05:28:24.500Z,95.39
2023-05-08T05:29:28.796Z,95.17
2023-05-08T05:30:32.992Z,94.97
2023-05-08T05:31:37.429Z,94.80
2023-05-08T05:32:41.613Z,94.71
2023-05-08T05:33:45.882Z,94.33
2023-05-08T05:34:50.182Z,94.19
2023-05-08T05:35:54.428Z,94.10
2023-05-08T05:36:58.693Z,94.05
2023-05-08T05:38:03.078Z,94.06
2023-05-08T05:39:07.281Z,93.99
2023-05-08T05:40:11.678Z,93.78
2023-05-08T05:41:15.857Z,93.43
2023-05-08T05:42:20.200Z,92.75
2023-05-08T05:43:24.426Z,92.22
2023-05-08T05:44:28.663Z,91.56
2023-05-08T05:45:33.790Z,90.92
2023-05-08T05:46:37.243Z,90.25
2023-05-08T05:47:41.572Z,89.83
2023-05-08T05:48:45.790Z,89.31
2023-05-08T05:49:50.088Z,89.02
2023-05-08T05:50:54.306Z,88.34
2023-05-08T05:51:58.647Z,87.51
2023-05-08T05:53:02.721Z,87.03
2023-05-08T05:54:07.084Z,86.89
2023-05-08T05:55:11.580Z,86.89
2023-05-08T05:56:15.641Z,86.77
2023-05-08T05:57:20.003Z,86.43
2023-05-08T05:58:24.230Z,86.33
2023-05-08T05:59:28.407Z,86.28
2023-05-08T06:00:32.671Z,86.50
2023-05-08T06:01:36.962Z,86.52
2023-05-08T06:02:41.390Z,85.59
2023-05-08T06:03:45.595Z,84.75
2023-05-08T06:04:49.749Z,84.20
2023-05-08T06:05:55.380Z,84.12
2023-05-08T06:06:58.458Z,83.72
2023-05-08T06:08:02.594Z,83.16
2023-05-08T06:09:09.890Z,82.69
2023-05-08T06:10:13.335Z,82.62
2023-05-08T06:11:17.591Z,82.57
2023-05-08T06:12:21.838Z,82.35
2023-05-08T06:13:26.197Z,82.56
2023-05-08T06:14:30.289Z,82.79
2023-05-08T06:15:34.619Z,82.93
2023-05-08T06:16:39.048Z,82.96
2023-05-08T06:17:43.306Z,81.78
2023-05-08T06:18:47.536Z,81.28
2023-05-08T06:19:51.835Z,80.84
2023-05-08T06:20:56.084Z,80.50
2023-05-08T06:22:00.413Z,80.35
2023-05-08T06:23:04.660Z,79.57
2023-05-08T06:24:08.975Z,79.20
2023-05-08T06:25:13.503Z,78.73
2023-05-08T06:26:17.544Z,78.20
2023-05-08T06:27:21.803Z,78.10
2023-05-08T06:28:26.261Z,78.16
2023-05-08T06:29:30.461Z,78.12
2023-05-08T06:30:34.751Z,77.26
2023-05-08T06:31:39.000Z,76.70
2023-05-08T06:32:43.378Z,76.11
2023-05-08T06:33:47.588Z,76.17
2023-05-08T06:34:51.841Z,76.63
2023-05-08T06:35:56.258Z,76.13
2023-05-08T06:37:00.458Z,75.63
2023-05-08T06:38:04.756Z,75.40
2023-05-08T06:39:09.014Z,75.13
2023-05-08T06:40:13.366Z,74.63
2023-05-08T06:41:17.817Z,74.56
2023-05-08T06:42:21.965Z,74.91
2023-05-08T06:43:26.261Z,74.81
2023-05-08T06:44:30.562Z,75.19
2023-05-08T06:45:34.853Z,75.03
2023-05-08T06:46:39.189Z,75.01
2023-05-08T06:47:43.468Z,74.97
2023-05-08T06:48:47.801Z,74.26
2023-05-08T06:49:55.083Z,73.72
2023-05-08T06:51:01.487Z,73.21
2023-05-08T06:52:04.906Z,73.19
2023-05-08T06:53:09.237Z,73.61
2023-05-08T06:54:13.567Z,72.97
2023-05-08T06:55:17.838Z,73.11
2023-05-08T06:56:22.185Z,72.77
2023-05-08T06:57:26.465Z,72.08
2023-05-08T06:58:30.702Z,71.81
2023-05-08T06:59:41.061Z,71.42
2023-05-08T07:00:43.974Z,70.98
2023-05-08T07:01:48.386Z,70.34
2023-05-08T07:02:52.614Z,70.33
2023-05-08T07:03:56.922Z,70.73
2023-05-08T07:05:01.257Z,70.78
2023-05-08T07:06:08.504Z,70.39
2023-05-08T07:07:11.937Z,70.45
2023-05-08T07:08:16.270Z,69.96
2023-05-08T07:09:20.515Z,68.99
2023-05-08T07:10:24.884Z,68.84
2023-05-08T07:11:32.242Z,68.56
2023-05-08T07:12:35.588Z,69.00
2023-05-08T07:13:39.975Z,68.70
2023-05-08T07:14:44.269Z,68.42
2023-05-08T07:15:48.598Z,68.31
2023-05-08T07:16:52.897Z,68.11
2023-05-08T07:17:57.466Z,68.09
2023-05-08T07:19:01.629Z,68.39
2023-05-08T07:20:05.966Z,68.61
2023-05-08T07:21:10.227Z,68.11
2023-05-08T07:22:14.625Z,68.09
2023-05-08T07:23:18.940Z,67.82
2023-05-08T07:24:23.299Z,67.89
2023-05-08T07:25:27.555Z,67.86
2023-05-08T07:26:31.856Z,67.90
2023-05-08T07:27:36.194Z,68.24
2023-05-08T07:28:40.615Z,68.54
2023-05-08T07:29:44.869Z,68.58
2023-05-08T07:30:49.222Z,68.61
2023-05-08T07:31:53.613Z,68.19
2023-05-08T07:32:57.936Z,67.98
2023-05-08T07:34:02.275Z,68.22
2023-05-08T07:35:08.379Z,68.00
2023-05-08T07:36:10.843Z,67.94
2023-05-08T07:37:15.170Z,68.25
2023-05-08T07:38:19.550Z,67.66
2023-05-08T07:39:23.872Z,67.59
2023-05-08T07:40:28.225Z,67.52
2023-05-08T07:41:32.628Z,67.45
2023-05-08T07:42:36.922Z,67.53
2023-05-08T07:43:41.277Z,67.76
2023-05-08T07:44:54.459Z,67.96
2023-05-08T07:45:49.957Z,67.33
2023-05-08T07:46:54.280Z,66.83
2023-05-08T07:47:58.621Z,66.39
2023-05-08T07:49:02.834Z,66.59
2023-05-08T07:50:07.225Z,67.00
2023-05-08T07:51:11.541Z,66.85
2023-05-08T07:52:15.825Z,66.54
2023-05-08T07:53:20.235Z,66.18
2023-05-08T07:54:24.607Z,66.50
2023-05-08T07:55:28.918Z,66.42
2023-05-08T07:56:33.244Z,65.87
2023-05-08T07:57:37.617Z,65.87
2023-05-08T07:58:41.986Z,65.64
2023-05-08T07:59:46.428Z,65.67
2023-05-08T08:00:50.751Z,66.05
2023-05-08T08:01:55.029Z,64.84
2023-05-08T08:02:59.483Z,64.76
2023-05-08T08:04:03.806Z,64.75
2023-05-08T08:05:08.109Z,65.09
2023-05-08T08:06:26.401Z,64.74
2023-05-08T08:07:29.516Z,64.96
2023-05-08T08:08:33.889Z,65.25
2023-05-08T08:09:38.156Z,65.54
2023-05-08T08:10:42.511Z,64.49
2023-05-08T08:11:46.878Z,63.58
2023-05-08T08:12:51.214Z,63.48
2023-05-08T08:13:55.404Z,63.67
2023-05-08T08:14:59.964Z,63.04
2023-05-08T08:16:04.250Z,63.12
2023-05-08T08:17:08.751Z,63.49
2023-05-08T08:18:12.918Z,62.61
2023-05-08T08:19:17.329Z,61.93
2023-05-08T08:20:21.661Z,61.41
2023-05-08T08:21:25.983Z,61.27
2023-05-08T08:22:30.439Z,61.38
2023-05-08T08:23:34.735Z,61.81
2023-05-08T08:24:39.137Z,61.82
2023-05-08T08:25:43.432Z,61.25
2023-05-08T08:26:47.858Z,60.97
2023-05-08T08:27:52.098Z,60.50
2023-05-08T08:28:56.544Z,60.31
2023-05-08T08:30:16.087Z,60.55
2023-05-08T08:31:05.282Z,60.12
2023-05-08T08:32:09.523Z,59.28
2023-05-08T08:33:13.886Z,59.80
2023-05-08T08:34:18.220Z,59.43
2023-05-08T08:35:22.530Z,59.33
2023-05-08T08:36:26.835Z,59.53
2023-05-08T08:37:31.170Z,59.21
2023-05-08T08:38:35.456Z,58.41
2023-05-08T08:39:42.819Z,58.69
2023-05-08T08:40:46.344Z,59.01
2023-05-08T08:41:50.655Z,58.90
2023-05-08T08:42:55.056Z,59.41
2023-05-08T08:43:59.396Z,59.83
2023-05-08T08:45:03.786Z,58.59
2023-05-08T08:46:08.230Z,58.12
2023-05-08T08:47:18.345Z,58.02
2023-05-08T08:48:21.417Z,58.06
2023-05-08T08:49:25.711Z,58.56
2023-05-08T08:50:46.082Z,57.95
2023-05-08T08:51:49.533Z,58.47
2023-05-08T08:52:53.755Z,58.08
2023-05-08T08:53:58.077Z,57.75
2023-05-08T08:55:02.406Z,57.67
2023-05-08T08:56:06.722Z,58.27
2023-05-08T08:57:11.105Z,57.76
2023-05-08T08:58:18.362Z,57.42
2023-05-08T08:59:21.801Z,56.92
2023-05-08T09:00:26.111Z,57.23
2023-05-08T09:01:30.615Z,57.83
2023-05-08T09:02:34.929Z,58.01
2023-05-08T09:03:39.334Z,57.48
2023-05-08T09:04:43.472Z,56.93
2023-05-08T09:05:47.863Z,56.57
2023-05-08T09:06:52.140Z,56.10
2023-05-08T09:07:56.613Z,56.53
2023-05-08T09:09:00.888Z,56.78
2023-05-08T09:10:05.238Z,56.42
2023-05-08T09:11:09.670Z,56.53
2023-05-08T09:12:13.893Z,56.21
2023-05-08T09:13:19.646Z,56.29
2023-05-08T09:14:22.687Z,56.20
2023-05-08T09:15:27.042Z,56.24
2023-05-08T09:16:31.431Z,56.12
2023-05-08T09:17:35.968Z,56.22
2023-05-08T09:18:40.132Z,56.28
2023-05-08T09:19:44.444Z,56.31
2023-05-08T09:20:48.819Z,56.56
2023-05-08T09:21:53.058Z,55.76
2023-05-08T09:22:57.386Z,56.08
2023-05-08T09:24:01.863Z,55.83
2023-05-08T09:25:06.096Z,55.62
2023-05-08T09:26:10.580Z,55.34
2023-05-08T09:27:14.843Z,55.71
2023-05-08T09:28:19.277Z,55.71
2023-05-08T09:29:23.647Z,55.81
2023-05-08T09:30:28.025Z,55.26
2023-05-08T09:31:32.847Z,55.69
2023-05-08T09:32:36.637Z,56.67
2023-05-08T09:33:41.183Z,56.78
2023-05-08T09:34:45.422Z,56.50
2023-05-08T09:35:52.753Z,56.25
2023-05-08T09:36:56.169Z,56.13
2023-05-08T09:38:00.448Z,55.91
2023-05-08T09:39:04.915Z,55.44
2023-05-08T09:40:09.156Z,55.46
2023-05-08T09:41:13.618Z,54.75
2023-05-08T09:42:17.940Z,54.66
2023-05-08T09:43:22.385Z,55.35
2023-05-08T09:44:26.704Z,55.90
2023-05-08T09:45:31.404Z,56.07
2023-05-08T09:46:35.539Z,56.23
2023-05-08T09:47:39.887Z,55.58
2023-05-08T09:48:44.195Z,54.86
2023-05-08T09:49:48.637Z,55.24
2023-05-08T09:50:53.070Z,54.83
2023-05-08T09:51:57.343Z,55.61
2023-05-08T09:53:01.692Z,54.99
2023-05-08T09:54:06.039Z,54.15
2023-05-08T09:55:24.420Z,54.16
2023-05-08T09:56:27.467Z,54.50
2023-05-08T09:57:31.869Z,55.35
2023-05-08T09:58:36.106Z,55.27
2023-05-08T09:59:40.575Z,55.51
2023-05-08T10:00:44.902Z,55.99
2023-05-08T10:01:49.270Z,55.33
2023-05-08T10:02:53.763Z,55.25
2023-05-08T10:03:58.293Z,54.86
2023-05-08T10:05:02.563Z,54.59
2023-05-08T10:06:06.699Z,54.47
2023-05-08T10:07:11.184Z,54.54
2023-05-08T10:08:15.443Z,54.33
2023-05-08T10:09:19.790Z,53.75
2023-05-08T10:10:24.161Z,53.96
2023-05-08T10:11:28.608Z,53.86
2023-05-08T10:12:32.968Z,54.40
2023-05-08T10:13:43.427Z,54.63
2023-05-08T10:14:47.068Z,54.75
2023-05-08T10:15:50.748Z,54.37
2023-05-08T10:16:55.166Z,53.72
2023-05-08T10:17:59.423Z,53.74
2023-05-08T10:19:03.842Z,53.59
2023-05-08T10:20:08.046Z,53.79
2023-05-08T10:21:12.437Z,53.88
2023-05-08T10:22:16.876Z,53.84
2023-05-08T10:23:21.135Z,53.91
2023-05-08T10:24:25.588Z,53.98
2023-05-08T10:25:29.945Z,53.61
2023-05-08T10:26:34.244Z,53.33
2023-05-08T10:27:38.651Z,54.14
2023-05-08T10:28:42.955Z,54.06
2023-05-08T10:29:47.384Z,54.03
2023-05-08T10:30:51.802Z,52.76
2023-05-08T10:31:56.064Z,52.67
2023-05-08T10:33:00.430Z,52.95
2023-05-08T10:34:04.790Z,53.36
2023-05-08T10:35:09.316Z,53.90
2023-05-08T10:36:13.488Z,53.84
2023-05-08T10:37:17.776Z,53.82
2023-05-08T10:38:22.146Z,53.44
2023-05-08T10:39:26.591Z,53.30
2023-05-08T10:40:30.965Z,53.26
2023-05-08T10:41:35.216Z,53.02
2023-05-08T10:42:39.525Z,51.90
2023-05-08T10:43:43.898Z,51.82
2023-05-08T10:44:48.360Z,51.99
2023-05-08T10:45:52.585Z,52.47
2023-05-08T10:46:56.822Z,52.55
2023-05-08T10:48:01.279Z,52.82
2023-05-08T10:49:05.533Z,52.76
2023-05-08T10:50:09.965Z,52.93
2023-05-08T10:51:14.260Z,52.81
2023-05-08T10:52:18.577Z,52.74
2023-05-08T10:53:22.885Z,52.78
2023-05-08T10:54:29.252Z,52.63
2023-05-08T10:55:31.705Z,52.71
2023-05-08T10:56:35.961Z,51.54
2023-05-08T10:57:40.246Z,51.92
2023-05-08T10:58:44.673Z,52.01
2023-05-08T10:59:48.978Z,52.07
2023-05-08T11:00:53.329Z,52.35
2023-05-08T11:01:57.786Z,51.73
2023-05-08T11:03:02.260Z,51.52
2023-05-08T11:04:06.663Z,51.12
2023-05-08T11:05:13.875Z,51.14
2023-05-08T11:06:17.385Z,51.06
2023-05-08T11:07:21.684Z,50.87
2023-05-08T11:08:26.013Z,51.24
2023-05-08T11:09:30.369Z,51.48
2023-05-08T11:10:34.738Z,50.88
2023-05-08T11:11:39.033Z,50.96
2023-05-08T11:12:43.491Z,51.29
2023-05-08T11:13:47.865Z,51.04
2023-05-08T11:14:52.260Z,50.75
2023-05-08T11:15:56.670Z,50.07
2023-05-08T11:17:00.937Z,49.41
2023-05-08T11:18:05.398Z,49.88
2023-05-08T11:19:09.650Z,49.38
2023-05-08T11:20:14.235Z,49.50
2023-05-08T11:21:18.361Z,49.84
2023-05-08T11:22:22.872Z,50.26
2023-05-08T11:23:27.181Z,50.36
2023-05-08T11:24:31.670Z,49.81
2023-05-08T11:25:35.949Z,49.44
2023-05-08T11:26:40.499Z,49.80
2023-05-08T11:27:44.822Z,48.90
2023-05-08T11:28:49.112Z,49.18
2023-05-08T11:29:53.459Z,48.65
2023-05-08T11:30:57.953Z,48.71
2023-05-08T11:32:02.318Z,48.55
2023-05-08T11:33:06.690Z,49.06
2023-05-08T11:34:24.933Z,49.20
2023-05-08T11:35:28.381Z,48.71
2023-05-08T11:36:32.738Z,48.93
2023-05-08T11:37:43.246Z,48.27
2023-05-08T11:38:46.155Z,48.90
2023-05-08T11:39:50.488Z,48.90
2023-05-08T11:40:54.987Z,48.83
2023-05-08T11:41:59.273Z,48.59
2023-05-08T11:43:03.707Z,48.14
2023-05-08T11:44:08.096Z,47.96
2023-05-08T11:45:12.519Z,48.08
2023-05-08T11:46:17.116Z,47.59
2023-05-08T11:47:21.371Z,47.69
2023-05-08T11:48:25.643Z,47.86
2023-05-08T11:49:30.249Z,48.49
2023-05-08T11:50:34.427Z,47.76
2023-05-08T11:51:38.945Z,46.99
2023-05-08T11:52:43.624Z,47.11
2023-05-08T11:53:48.029Z,46.88
2023-05-08T11:54:52.091Z,47.30
2023-05-08T11:55:56.551Z,47.24
2023-05-08T11:57:00.840Z,47.48
2023-05-08T11:58:05.314Z,47.57
2023-05-08T11:59:09.640Z,47.58
2023-05-08T12:00:14.353Z,47.59
2023-05-08T12:01:18.419Z,47.62
2023-05-08T12:02:22.885Z,47.75
2023-05-08T12:03:27.363Z,47.68
2023-05-08T12:04:31.880Z,46.94
2023-05-08T12:05:36.023Z,47.03
2023-05-08T12:06:40.546Z,46.59
2023-05-08T12:07:44.836Z,45.89
2023-05-08T12:08:49.339Z,46.56
2023-05-08T12:09:53.710Z,46.98
2023-05-08T12:10:58.164Z,46.84
2023-05-08T12:12:02.560Z,46.17
2023-05-08T12:13:06.896Z,46.17
2023-05-08T12:14:11.299Z,46.57
2023-05-08T12:15:15.652Z,46.96
2023-05-08T12:16:34.071Z,46.07
2023-05-08T12:17:37.478Z,46.63
2023-05-08T12:18:41.863Z,47.10
2023-05-08T12:19:46.240Z,47.92
2023-05-08T12:20:50.670Z,47.75
2023-05-08T12:21:55.007Z,47.39
2023-05-08T12:22:59.478Z,47.16
2023-05-08T12:24:03.844Z,47.49
2023-05-08T12:25:08.190Z,46.79
2023-05-08T12:26:12.506Z,46.50
2023-05-08T12:27:16.966Z,46.41
2023-05-08T12:28:21.311Z,45.97
2023-05-08T12:29:25.752Z,46.09
2023-05-08T12:30:30.183Z,46.32
2023-05-08T12:31:34.627Z,46.57
2023-05-08T12:32:39.195Z,46.66
2023-05-08T12:33:49.432Z,46.77
2023-05-08T12:34:52.519Z,47.19
2023-05-08T12:35:56.914Z,47.49
2023-05-08T12:37:01.245Z,47.22
2023-05-08T12:38:05.612Z,47.23
2023-05-08T12:39:10.250Z,47.80
2023-05-08T12:40:14.768Z,46.70
2023-05-08T12:41:18.853Z,45.64
2023-05-08T12:42:23.321Z,45.42
2023-05-08T12:43:27.661Z,45.04
2023-05-08T12:44:32.065Z,45.06
2023-05-08T12:45:36.459Z,45.61
2023-05-08T12:46:40.834Z,44.75
2023-05-08T12:47:45.289Z,44.52
2023-05-08T12:48:49.594Z,44.35
2023-05-08T12:49:54.003Z,44.06
2023-05-08T12:50:58.493Z,44.32
2023-05-08T12:52:02.807Z,44.46
2023-05-08T12:53:07.387Z,44.52
2023-05-08T12:54:11.668Z,44.45
2023-05-08T12:55:16.151Z,44.24
2023-05-08T12:56:20.539Z,44.50
2023-05-08T12:57:24.863Z,44.83
2023-05-08T12:58:29.256Z,45.12
2023-05-08T12:59:33.732Z,45.28
2023-05-08T13:00:38.129Z,45.47
2023-05-08T13:01:42.676Z,45.27
2023-05-08T13:02:49.518Z,46.10
2023-05-08T13:04:01.600Z,46.42
2023-05-08T13:04:57.904Z,46.53
2023-05-08T13:06:02.298Z,46.55
2023-05-08T13:07:06.602Z,47.53
2023-05-08T13:08:11.114Z,48.45
2023-05-08T13:09:15.431Z,47.07
2023-05-08T13:10:21.602Z,47.05
2023-05-08T13:11:24.228Z,47.81
2023-05-08T13:12:28.539Z,48.25
2023-05-08T13:13:33.002Z,47.33
2023-05-08T13:14:37.474Z,47.91
2023-05-08T13:15:44.836Z,48.26
2023-05-08T13:16:48.498Z,48.26
2023-05-08T13:17:52.796Z,48.10
2023-05-08T13:18:57.240Z,48.31
2023-05-08T13:20:03.401Z,48.42
2023-05-08T13:21:05.956Z,47.89
2023-05-08T13:22:10.333Z,47.51
2023-05-08T13:23:14.786Z,47.42
2023-05-08T13:24:19.121Z,47.37
2023-05-08T13:25:23.646Z,48.06
2023-05-08T13:27:55.271Z,47.18
2023-05-08T13:28:59.527Z,47.85
2023-05-08T13:30:03.905Z,47.61
2023-05-08T13:31:08.208Z,48.14
2023-05-08T13:32:12.742Z,48.47
2023-05-08T13:33:17.006Z,49.09
2023-05-08T13:34:21.448Z,48.84
2023-05-08T13:35:25.767Z,49.16
2023-05-08T13:36:30.223Z,49.40
2023-05-08T13:37:48.860Z,49.43
2023-05-08T13:38:52.388Z,49.52
2023-05-08T13:39:56.614Z,49.77
2023-05-08T13:41:01.180Z,50.43
2023-05-08T13:42:05.431Z,50.38
2023-05-08T13:43:09.850Z,49.81
2023-05-08T13:44:14.251Z,48.49
2023-05-08T13:45:18.581Z,48.52
2023-05-08T13:46:23.073Z,48.87
2023-05-08T13:47:27.529Z,49.01
2023-05-08T13:48:31.887Z,48.48
2023-05-08T13:49:36.295Z,48.60
2023-05-08T13:50:40.727Z,48.65
2023-05-08T13:51:47.191Z,49.03
2023-05-08T13:52:50.502Z,48.71